Time;durP1;ratioP1;P1;durP2;ratioP2;P2;SDS_P1;SDS_P2;PMS_P1;PMS_P2;Temp;Humidity;BMP_temperature;BMP_pressure;BME280_temperature;BME280_humidity;BME280_pressure;Samples;Min_cycle;Max_cycle;Signal;HPM_P1;HPM_P2
2023/08/06 00:00:08;;;;;;;6.60;4.40;;;;;;;;;;5082409;28;20441;-78
2023/08/06 00:02:38;;;;;;;6.73;4.20;;;;;;;;;;5081175;28;20788;-79
2023/08/06 00:05:06;;;;;;;6.67;4.50;;;;;;;;;;5082633;28;20465;-79
2023/08/06 00:07:33;;;;;;;6.40;4.23;;;;;;;;;;5081145;28;20481;-79
2023/08/06 00:10:08;;;;;;;7.03;4.37;;;;;;;;;;5082297;28;20482;-78
2023/08/06 00:12:35;;;;;;;5.83;4.73;;;;;;;;;;5081412;28;20448;-79
2023/08/06 00:15:03;;;;;;;9.30;4.53;;;;;;;;;;5084886;28;20451;-79
2023/08/06 00:17:30;;;;;;;6.30;4.20;;;;;;;;;;5082610;28;20471;-79
2023/08/06 00:20:08;;;;;;;6.80;4.67;;;;;;;;;;5081258;28;20494;-77
2023/08/06 00:22:36;;;;;;;6.17;3.90;;;;;;;;;;5080068;28;20463;-78
2023/08/06 00:25:04;;;;;;;7.37;3.90;;;;;;;;;;5079762;28;20474;-79
2023/08/06 00:27:32;;;;;;;4.73;3.90;;;;;;;;;;5081554;28;20583;-79
2023/08/06 00:30:08;;;;;;;9.03;4.17;;;;;;;;;;5081762;28;20708;-79
2023/08/06 00:32:35;;;;;;;10.90;5.00;;;;;;;;;;5081979;28;20448;-78
2023/08/06 00:35:05;;;;;;;10.77;5.07;;;;;;;;;;5082187;28;20467;-79
2023/08/06 00:37:32;;;;;;;6.43;4.13;;;;;;;;;;5081426;28;20452;-79
2023/08/06 00:40:22;;;;;;;7.93;5.27;;;;;;;;;;5083712;28;20459;-79
2023/08/06 00:42:50;;;;;;;6.97;4.60;;;;;;;;;;5075982;28;20497;-78
2023/08/06 00:45:17;;;;;;;5.50;4.40;;;;;;;;;;5085117;28;20444;-79
2023/08/06 00:47:46;;;;;;;5.50;4.77;;;;;;;;;;5082335;28;20883;-78
2023/08/06 00:50:22;;;;;;;6.60;3.63;;;;;;;;;;5079672;28;20459;-79
2023/08/06 00:52:51;;;;;;;8.30;4.50;;;;;;;;;;5081654;28;20456;-79
2023/08/06 00:55:19;;;;;;;5.30;4.20;;;;;;;;;;5081445;28;20456;-78
2023/08/06 00:57:46;;;;;;;6.37;4.07;;;;;;;;;;5081247;28;20452;-77
2023/08/06 01:00:18;;;;;;;6.70;3.57;;;;;;;;;;5082986;28;20479;-78
2023/08/06 01:02:45;;;;;;;5.60;3.67;;;;;;;;;;5081594;28;20456;-78
2023/08/06 01:05:13;;;;;;;5.23;3.67;;;;;;;;;;5081590;28;20878;-78
2023/08/06 01:07:53;;;;;;;6.53;3.80;;;;;;;;;;5080399;28;20468;-78
2023/08/06 01:10:25;;;;;;;4.87;3.40;;;;;;;;;;5081984;28;20460;-78
2023/08/06 01:13:08;;;;;;;5.70;3.83;;;;;;;;;;5080185;28;20757;-78
2023/08/06 01:15:40;;;;;;;4.63;3.40;;;;;;;;;;5079515;28;20479;-78
2023/08/06 01:18:10;;;;;;;5.47;3.70;;;;;;;;;;5079262;28;20441;-78
2023/08/06 01:20:39;;;;;;;6.43;3.37;;;;;;;;;;5080675;28;20463;-78
2023/08/06 01:23:07;;;;;;;6.27;3.33;;;;;;;;;;5083640;28;20449;-79
2023/08/06 01:25:35;;;;;;;6.67;3.73;;;;;;;;;;5084262;28;20456;-78
2023/08/06 01:28:05;;;;;;;4.60;3.77;;;;;;;;;;5083325;28;20484;-78
2023/08/06 01:30:35;;;;;;;4.80;3.60;;;;;;;;;;5082779;28;20545;-80
2023/08/06 01:33:06;;;;;;;6.37;4.77;;;;;;;;;;5081239;28;20541;-78
2023/08/06 01:35:34;;;;;;;5.00;3.87;;;;;;;;;;5083458;28;20464;-80
2023/08/06 01:38:03;;;;;;;8.57;4.67;;;;;;;;;;5086294;28;20448;-79
2023/08/06 01:40:32;;;;;;;5.50;4.00;;;;;;;;;;5085536;28;20487;-79
2023/08/06 01:43:00;;;;;;;4.90;4.20;;;;;;;;;;5085170;28;20504;-79
2023/08/06 01:45:28;;;;;;;8.07;3.90;;;;;;;;;;5085145;28;20849;-76
2023/08/06 01:47:56;;;;;;;5.93;3.83;;;;;;;;;;5087029;28;20477;-79
2023/08/06 01:50:23;;;;;;;6.77;4.30;;;;;;;;;;5087024;28;20501;-79
2023/08/06 01:52:51;;;;;;;5.57;3.80;;;;;;;;;;5089195;28;20442;-79
2023/08/06 01:55:20;;;;;;;5.40;3.73;;;;;;;;;;5085550;28;20458;-79
2023/08/06 01:57:48;;;;;;;4.53;3.70;;;;;;;;;;5087322;28;20684;-79
2023/08/06 02:00:19;;;;;;;6.70;3.77;;;;;;;;;;5084853;28;20448;-78
2023/08/06 02:02:46;;;;;;;4.80;3.70;;;;;;;;;;5080960;28;20899;-80
2023/08/06 02:05:14;;;;;;;4.87;4.00;;;;;;;;;;5081626;28;20460;-78
2023/08/06 02:07:42;;;;;;;6.30;4.40;;;;;;;;;;5081276;28;20486;-78
2023/08/06 02:10:15;;;;;;;4.30;3.77;;;;;;;;;;5083209;28;20460;-78
2023/08/06 02:12:44;;;;;;;5.03;4.00;;;;;;;;;;5080463;28;20452;-78
2023/08/06 02:15:12;;;;;;;6.77;3.60;;;;;;;;;;5087394;28;20483;-78
2023/08/06 02:17:39;;;;;;;5.03;3.63;;;;;;;;;;5082640;28;20455;-78
2023/08/06 02:20:09;;;;;;;6.80;4.10;;;;;;;;;;5084802;28;20453;-79
2023/08/06 02:22:37;;;;;;;5.77;3.90;;;;;;;;;;5086590;28;20936;-79
2023/08/06 02:25:06;;;;;;;5.93;3.80;;;;;;;;;;5086038;28;20462;-80
2023/08/06 02:27:34;;;;;;;5.07;3.70;;;;;;;;;;5085168;28;20790;-79
2023/08/06 02:30:15;;;;;;;6.77;4.13;;;;;;;;;;5086070;28;20480;-79
2023/08/06 02:32:42;;;;;;;5.00;4.00;;;;;;;;;;5083970;28;20452;-80
2023/08/06 02:35:10;;;;;;;7.23;4.07;;;;;;;;;;5084529;28;20464;-78
2023/08/06 02:37:38;;;;;;;7.03;3.20;;;;;;;;;;5085803;28;20495;-78
2023/08/06 02:40:11;;;;;;;5.30;3.43;;;;;;;;;;5084622;28;20990;-78
2023/08/06 02:42:38;;;;;;;6.43;4.03;;;;;;;;;;5082991;28;20488;-79
2023/08/06 02:45:06;;;;;;;5.20;4.23;;;;;;;;;;5084945;28;20452;-79
2023/08/06 02:47:35;;;;;;;5.57;4.37;;;;;;;;;;5083437;28;20925;-79
2023/08/06 02:50:06;;;;;;;7.50;3.87;;;;;;;;;;5084026;28;20558;-78
2023/08/06 02:52:34;;;;;;;5.37;4.10;;;;;;;;;;5082454;28;20453;-78
2023/08/06 02:55:02;;;;;;;6.90;4.17;;;;;;;;;;5081956;28;20461;-79
2023/08/06 02:57:30;;;;;;;4.10;3.47;;;;;;;;;;5082923;28;20514;-79
2023/08/06 03:00:07;;;;;;;6.43;4.43;;;;;;;;;;5085096;28;20745;-79
2023/08/06 03:02:36;;;;;;;5.60;3.73;;;;;;;;;;5084741;28;20489;-79
2023/08/06 03:05:03;;;;;;;4.97;3.10;;;;;;;;;;5084041;28;20857;-79
2023/08/06 03:07:31;;;;;;;6.80;4.17;;;;;;;;;;5083237;28;20494;-79
2023/08/06 03:10:05;;;;;;;5.13;3.60;;;;;;;;;;5082150;28;20491;-79
2023/08/06 03:12:32;;;;;;;6.77;4.90;;;;;;;;;;5081043;28;20453;-80
2023/08/06 03:15:00;;;;;;;7.80;4.60;;;;;;;;;;5081511;28;20459;-80
2023/08/06 03:17:27;;;;;;;5.20;3.93;;;;;;;;;;5082001;28;20977;-78
2023/08/06 03:20:05;;;;;;;6.70;4.97;;;;;;;;;;5080765;28;20460;-79
2023/08/06 03:22:32;;;;;;;5.70;4.17;;;;;;;;;;5081751;28;20856;-79
2023/08/06 03:25:00;;;;;;;4.90;4.10;;;;;;;;;;5081979;28;20444;-80
2023/08/06 03:27:27;;;;;;;7.70;4.53;;;;;;;;;;5081367;28;20670;-80
2023/08/06 03:29:55;;;;;;;5.23;4.23;;;;;;;;;;5082360;28;20484;-79
2023/08/06 03:32:22;;;;;;;5.93;4.00;;;;;;;;;;5082973;28;20494;-79
2023/08/06 03:34:50;;;;;;;6.87;4.43;;;;;;;;;;5081815;28;20498;-79
2023/08/06 03:37:19;;;;;;;10.10;4.50;;;;;;;;;;5082011;28;20444;-79
2023/08/06 03:39:47;;;;;;;7.00;4.37;;;;;;;;;;5081161;28;20476;-79
2023/08/06 03:42:14;;;;;;;5.87;4.10;;;;;;;;;;5082894;28;20491;-79
2023/08/06 03:44:42;;;;;;;4.73;3.80;;;;;;;;;;5081852;28;20459;-80
2023/08/06 03:47:09;;;;;;;6.70;4.17;;;;;;;;;;5082159;28;20448;-79
2023/08/06 03:49:37;;;;;;;6.17;4.00;;;;;;;;;;5080995;28;20500;-79
2023/08/06 03:52:05;;;;;;;5.63;4.20;;;;;;;;;;5082026;28;20494;-79
2023/08/06 03:54:34;;;;;;;7.23;4.40;;;;;;;;;;5081529;28;20510;-79
2023/08/06 03:57:01;;;;;;;5.57;4.00;;;;;;;;;;5080547;28;20805;-79
2023/08/06 03:59:29;;;;;;;6.33;4.17;;;;;;;;;;5081473;28;20797;-79
2023/08/06 04:01:57;;;;;;;5.97;3.73;;;;;;;;;;5082665;28;20490;-79
2023/08/06 04:04:24;;;;;;;4.63;3.93;;;;;;;;;;5080502;28;20452;-79
2023/08/06 04:06:52;;;;;;;4.73;3.40;;;;;;;;;;5081317;28;20471;-79
2023/08/06 04:09:19;;;;;;;5.40;4.23;;;;;;;;;;5082534;28;20722;-79
2023/08/06 04:11:48;;;;;;;11.93;4.67;;;;;;;;;;5082595;28;20491;-79
2023/08/06 04:14:16;;;;;;;7.07;3.83;;;;;;;;;;5082058;28;20463;-78
2023/08/06 04:16:43;;;;;;;7.40;4.13;;;;;;;;;;5084850;28;20743;-79
2023/08/06 04:19:11;;;;;;;8.10;4.10;;;;;;;;;;5083059;28;20502;-79
2023/08/06 04:21:39;;;;;;;6.10;4.00;;;;;;;;;;5083699;28;20508;-79
2023/08/06 04:24:06;;;;;;;4.27;3.87;;;;;;;;;;5082638;28;20462;-79
2023/08/06 04:26:34;;;;;;;14.23;5.33;;;;;;;;;;5083167;28;20523;-79
2023/08/06 04:29:03;;;;;;;5.97;4.10;;;;;;;;;;5083356;28;20499;-79
2023/08/06 04:31:30;;;;;;;6.70;3.77;;;;;;;;;;5083416;28;20466;-79
2023/08/06 04:33:58;;;;;;;5.13;3.87;;;;;;;;;;5082882;28;20451;-78
2023/08/06 04:36:25;;;;;;;6.23;3.57;;;;;;;;;;5083606;28;20468;-78
2023/08/06 04:38:53;;;;;;;7.33;4.00;;;;;;;;;;5081116;28;20461;-79
2023/08/06 04:41:21;;;;;;;5.23;3.73;;;;;;;;;;5081631;28;20476;-79
2023/08/06 04:43:48;;;;;;;5.40;3.67;;;;;;;;;;5081874;28;20463;-79
2023/08/06 04:46:17;;;;;;;6.97;3.90;;;;;;;;;;5082955;28;20456;-79
2023/08/06 04:48:45;;;;;;;7.83;3.40;;;;;;;;;;5081794;28;20490;-79
2023/08/06 04:51:12;;;;;;;5.80;3.20;;;;;;;;;;5083494;28;20433;-79
2023/08/06 04:53:40;;;;;;;6.83;3.67;;;;;;;;;;5069397;28;20797;-79
2023/08/06 04:56:07;;;;;;;9.80;3.67;;;;;;;;;;5062666;28;20544;-79
2023/08/06 04:58:35;;;;;;;4.67;3.30;;;;;;;;;;5065722;28;20732;-79
2023/08/06 05:01:03;;;;;;;6.80;3.83;;;;;;;;;;5066309;28;20460;-79
2023/08/06 05:03:32;;;;;;;4.97;3.60;;;;;;;;;;5066230;28;20491;-79
2023/08/06 05:05:59;;;;;;;6.47;3.77;;;;;;;;;;5066935;28;20467;-79
2023/08/06 05:08:27;;;;;;;12.43;3.80;;;;;;;;;;5071828;28;20873;-79
2023/08/06 05:10:55;;;;;;;10.40;5.13;;;;;;;;;;5073661;28;20495;-79
2023/08/06 05:13:22;;;;;;;7.27;5.47;;;;;;;;;;5074262;28;20575;-78
2023/08/06 05:15:50;;;;;;;8.43;5.53;;;;;;;;;;5074247;28;20476;-79
2023/08/06 05:18:17;;;;;;;5.03;4.37;;;;;;;;;;5072610;28;21052;-78
2023/08/06 05:20:46;;;;;;;7.80;4.60;;;;;;;;;;5071912;28;20527;-77
2023/08/06 05:23:14;;;;;;;6.00;4.70;;;;;;;;;;5065237;28;20453;-78
2023/08/06 05:25:42;;;;;;;9.33;4.70;;;;;;;;;;5070706;28;20461;-78
2023/08/06 05:28:12;;;;;;;11.33;4.93;;;;;;;;;;5065469;28;20467;-79
2023/08/06 05:30:46;;;;;;;7.77;4.70;;;;;;;;;;5065303;28;20492;-79
2023/08/06 05:33:13;;;;;;;10.60;5.73;;;;;;;;;;5063596;28;20453;-79
2023/08/06 05:35:42;;;;;;;9.13;5.63;;;;;;;;;;5063908;28;20449;-79
2023/08/06 05:38:11;;;;;;;12.60;5.13;;;;;;;;;;5063150;28;20461;-79
2023/08/06 05:40:39;;;;;;;7.27;5.03;;;;;;;;;;5062393;28;20453;-78
2023/08/06 05:43:06;;;;;;;10.00;5.27;;;;;;;;;;5061125;28;20462;-79
2023/08/06 05:45:34;;;;;;;10.97;5.10;;;;;;;;;;5062470;28;20426;-79
2023/08/06 05:48:02;;;;;;;6.47;4.60;;;;;;;;;;5062923;28;20751;-79
2023/08/06 05:50:29;;;;;;;6.57;4.57;;;;;;;;;;5064746;28;20473;-79
2023/08/06 05:52:57;;;;;;;9.37;5.03;;;;;;;;;;5065483;28;20734;-79
2023/08/06 05:55:26;;;;;;;8.90;4.00;;;;;;;;;;5067270;28;20430;-79
2023/08/06 05:57:54;;;;;;;6.90;4.30;;;;;;;;;;5067260;28;20522;-79
2023/08/06 06:00:22;;;;;;;5.57;3.80;;;;;;;;;;5066304;28;20433;-79
2023/08/06 06:02:50;;;;;;;5.40;3.90;;;;;;;;;;5063409;28;20546;-79
2023/08/06 06:05:17;;;;;;;5.80;3.80;;;;;;;;;;5062837;28;20461;-79
2023/08/06 06:07:45;;;;;;;7.47;4.50;;;;;;;;;;5062378;28;20475;-79
2023/08/06 06:10:14;;;;;;;4.83;4.20;;;;;;;;;;5062328;28;20477;-78
2023/08/06 06:12:43;;;;;;;9.00;4.70;;;;;;;;;;5063551;28;20452;-79
2023/08/06 06:15:11;;;;;;;4.80;3.80;;;;;;;;;;5064552;28;20811;-79
2023/08/06 06:17:38;;;;;;;6.67;4.57;;;;;;;;;;5068924;28;20453;-79
2023/08/06 06:20:10;;;;;;;9.10;4.30;;;;;;;;;;5064407;28;20477;-79
2023/08/06 06:22:37;;;;;;;7.63;4.40;;;;;;;;;;5065544;28;21159;-79
2023/08/06 06:25:05;;;;;;;7.90;4.30;;;;;;;;;;5062359;28;20450;-79
2023/08/06 06:27:33;;;;;;;5.97;4.40;;;;;;;;;;5061460;28;20450;-79
2023/08/06 06:30:14;;;;;;;7.50;4.10;;;;;;;;;;5065900;28;20493;-79
2023/08/06 06:32:42;;;;;;;7.20;4.57;;;;;;;;;;5061501;28;20457;-79
2023/08/06 06:35:10;;;;;;;5.50;4.80;;;;;;;;;;5064160;28;20457;-79
2023/08/06 06:37:37;;;;;;;6.67;4.20;;;;;;;;;;5066224;28;20446;-79
2023/08/06 06:40:10;;;;;;;8.20;4.13;;;;;;;;;;5063875;28;20461;-78
2023/08/06 06:42:37;;;;;;;5.93;4.70;;;;;;;;;;5063564;28;20488;-79
2023/08/06 06:45:05;;;;;;;7.60;4.40;;;;;;;;;;5065232;28;20464;-79
2023/08/06 06:47:34;;;;;;;9.00;3.70;;;;;;;;;;5065180;28;20458;-79
2023/08/06 06:50:06;;;;;;;8.07;3.83;;;;;;;;;;5066386;28;20481;-79
2023/08/06 06:52:33;;;;;;;5.90;4.40;;;;;;;;;;5065661;28;20540;-78
2023/08/06 06:55:01;;;;;;;7.93;4.43;;;;;;;;;;5066884;28;20560;-78
2023/08/06 06:57:29;;;;;;;6.00;4.37;;;;;;;;;;5065211;28;20469;-78
2023/08/06 07:00:04;;;;;;;5.70;4.07;;;;;;;;;;5066301;28;20450;-78
2023/08/06 07:02:32;;;;;;;5.83;4.20;;;;;;;;;;5064522;28;20471;-78
2023/08/06 07:05:01;;;;;;;8.63;4.83;;;;;;;;;;5061354;28;20463;-79
2023/08/06 07:07:28;;;;;;;9.03;4.37;;;;;;;;;;5061527;28;20511;-78
2023/08/06 07:10:00;;;;;;;7.53;4.17;;;;;;;;;;5061514;28;20489;-79
2023/08/06 07:12:27;;;;;;;9.50;5.00;;;;;;;;;;5064615;28;20485;-79
2023/08/06 07:14:55;;;;;;;5.33;3.87;;;;;;;;;;5059019;28;20457;-79
2023/08/06 07:17:22;;;;;;;5.57;4.33;;;;;;;;;;5060655;28;20460;-79
2023/08/06 07:19:50;;;;;;;6.80;4.60;;;;;;;;;;5060007;28;20800;-79
2023/08/06 07:22:19;;;;;;;6.20;4.17;;;;;;;;;;5061949;28;20453;-79
2023/08/06 07:24:46;;;;;;;9.83;4.50;;;;;;;;;;5063580;28;20527;-79
2023/08/06 07:27:14;;;;;;;5.83;3.57;;;;;;;;;;5062757;28;20457;-78
2023/08/06 07:29:42;;;;;;;6.70;4.40;;;;;;;;;;5064600;28;20496;-78
2023/08/06 07:32:09;;;;;;;6.33;4.20;;;;;;;;;;5063589;28;20453;-79
2023/08/06 07:34:37;;;;;;;7.33;4.77;;;;;;;;;;5062019;28;20457;-77
2023/08/06 07:37:05;;;;;;;6.67;4.33;;;;;;;;;;5060300;28;20509;-78
2023/08/06 07:39:37;;;;;;;6.40;4.43;;;;;;;;;;5061570;28;20890;-77
2023/08/06 07:42:06;;;;;;;6.37;4.20;;;;;;;;;;5060182;28;20586;-77
2023/08/06 07:44:34;;;;;;;7.20;4.67;;;;;;;;;;5060520;28;20862;-79
2023/08/06 07:47:05;;;;;;;12.23;5.17;;;;;;;;;;5064134;28;20478;-79
2023/08/06 07:49:32;;;;;;;7.80;5.00;;;;;;;;;;5059568;28;20457;-78
2023/08/06 07:52:00;;;;;;;6.67;4.50;;;;;;;;;;5059861;28;20470;-78
2023/08/06 07:54:28;;;;;;;7.40;5.07;;;;;;;;;;5060902;28;20469;-78
2023/08/06 07:56:57;;;;;;;8.40;5.57;;;;;;;;;;5057700;28;20464;-77
2023/08/06 07:59:25;;;;;;;6.90;4.43;;;;;;;;;;5070544;28;20456;-78
2023/08/06 08:01:53;;;;;;;6.03;4.93;;;;;;;;;;5067154;28;20465;-78
2023/08/06 08:04:20;;;;;;;6.10;4.87;;;;;;;;;;5064850;28;20458;-78
2023/08/06 08:06:48;;;;;;;7.40;4.87;;;;;;;;;;5059226;28;20485;-79
2023/08/06 08:09:16;;;;;;;8.27;6.10;;;;;;;;;;5058010;28;20445;-79
2023/08/06 08:11:44;;;;;;;6.93;4.80;;;;;;;;;;5061009;28;20880;-78
2023/08/06 08:14:13;;;;;;;10.63;5.87;;;;;;;;;;5060317;28;20445;-78
2023/08/06 08:16:40;;;;;;;6.70;5.37;;;;;;;;;;5057888;28;20488;-77
2023/08/06 08:19:08;;;;;;;9.83;6.93;;;;;;;;;;5057744;28;20457;-78
2023/08/06 08:21:35;;;;;;;9.00;5.77;;;;;;;;;;5060541;28;20887;-78
2023/08/06 08:24:03;;;;;;;9.00;5.93;;;;;;;;;;5081085;28;20444;-78
2023/08/06 08:26:31;;;;;;;7.50;5.33;;;;;;;;;;5077742;28;20680;-78
2023/08/06 08:28:59;;;;;;;7.23;5.50;;;;;;;;;;5076285;28;20457;-77
2023/08/06 08:31:29;;;;;;;7.57;4.87;;;;;;;;;;5080833;28;20485;-78
2023/08/06 08:33:58;;;;;;;12.70;5.57;;;;;;;;;;5081846;28;20551;-77
2023/08/06 08:36:26;;;;;;;8.33;5.87;;;;;;;;;;5085459;28;20449;-77
2023/08/06 08:38:54;;;;;;;10.17;5.80;;;;;;;;;;5079848;28;20436;-79
2023/08/06 08:41:22;;;;;;;8.27;6.33;;;;;;;;;;5083081;28;20468;-79
2023/08/06 08:43:52;;;;;;;8.37;6.07;;;;;;;;;;5079659;28;20510;-79
2023/08/06 08:46:20;;;;;;;6.50;5.80;;;;;;;;;;5080757;28;20951;-79
2023/08/06 08:48:49;;;;;;;9.60;6.07;;;;;;;;;;5079174;28;20744;-79
2023/08/06 08:51:18;;;;;;;10.70;5.43;;;;;;;;;;5081142;28;20480;-79
2023/08/06 08:53:47;;;;;;;6.70;5.80;;;;;;;;;;5082937;28;20467;-79
2023/08/06 08:56:15;;;;;;;8.57;5.60;;;;;;;;;;5083482;28;20451;-79
2023/08/06 08:58:43;;;;;;;7.77;5.53;;;;;;;;;;5083606;28;20458;-79
2023/08/06 09:01:11;;;;;;;9.20;5.20;;;;;;;;;;5083344;28;20452;-79
2023/08/06 09:03:39;;;;;;;8.60;5.63;;;;;;;;;;5085528;28;20490;-79
2023/08/06 09:06:11;;;;;;;7.80;6.17;;;;;;;;;;5084311;28;20452;-79
2023/08/06 09:08:41;;;;;;;10.77;6.20;;;;;;;;;;5083014;28;20448;-79
2023/08/06 09:11:11;;;;;;;11.00;6.30;;;;;;;;;;5084403;28;20923;-79
2023/08/06 09:13:39;;;;;;;14.10;6.10;;;;;;;;;;5083663;28;20463;-79
2023/08/06 09:16:06;;;;;;;10.33;6.40;;;;;;;;;;5083092;28;20520;-79
2023/08/06 09:18:35;;;;;;;8.97;6.13;;;;;;;;;;5082788;28;20448;-79
2023/08/06 09:21:02;;;;;;;8.03;5.63;;;;;;;;;;5084506;28;20436;-78
2023/08/06 09:23:33;;;;;;;9.03;6.00;;;;;;;;;;5083401;28;20452;-79
2023/08/06 09:26:01;;;;;;;9.70;7.07;;;;;;;;;;5082842;28;20452;-78
2023/08/06 09:28:41;;;;;;;7.50;5.47;;;;;;;;;;5082053;28;20460;-79
2023/08/06 09:31:12;;;;;;;6.73;5.30;;;;;;;;;;5083397;28;20491;-79
2023/08/06 09:33:40;;;;;;;7.43;5.43;;;;;;;;;;5082272;28;20551;-78
2023/08/06 09:36:12;;;;;;;6.07;5.33;;;;;;;;;;5079384;28;20463;-78
2023/08/06 09:38:42;;;;;;;10.47;6.87;;;;;;;;;;5079945;28;21036;-78
2023/08/06 09:41:09;;;;;;;6.20;5.60;;;;;;;;;;5088882;28;20448;-78
2023/08/06 09:43:43;;;;;;;12.47;6.80;;;;;;;;;;5085977;28;20471;-78
2023/08/06 09:46:16;;;;;;;11.03;5.80;;;;;;;;;;5081286;28;20864;-79
2023/08/06 09:48:46;;;;;;;9.40;6.10;;;;;;;;;;5082860;28;20676;-78
2023/08/06 09:51:16;;;;;;;10.67;6.60;;;;;;;;;;5082811;28;20924;-78
2023/08/06 09:53:45;;;;;;;7.67;5.50;;;;;;;;;;5078319;28;20701;-78
2023/08/06 09:56:15;;;;;;;20.93;8.80;;;;;;;;;;5077179;28;20491;-77
2023/08/06 09:58:43;;;;;;;7.83;5.97;;;;;;;;;;5077370;28;20482;-78
2023/08/06 10:01:13;;;;;;;9.00;7.27;;;;;;;;;;5080581;28;20560;-79
2023/08/06 10:03:41;;;;;;;9.60;6.10;;;;;;;;;;5078505;28;20848;-78
2023/08/06 10:06:09;;;;;;;7.23;5.60;;;;;;;;;;5077849;28;20478;-79
2023/08/06 10:08:36;;;;;;;9.10;6.20;;;;;;;;;;5078571;28;20444;-79
2023/08/06 10:11:14;;;;;;;8.70;5.97;;;;;;;;;;5084228;28;20514;-78
2023/08/06 10:13:43;;;;;;;8.53;6.40;;;;;;;;;;5085842;28;20531;-78
2023/08/06 10:16:18;;;;;;;25.10;18.07;;;;;;;;;;5091280;28;20484;-79
2023/08/06 10:18:46;;;;;;;7.27;5.77;;;;;;;;;;5086706;28;20452;-78
2023/08/06 10:21:15;;;;;;;12.13;6.40;;;;;;;;;;5087564;28;20833;-78
2023/08/06 10:23:43;;;;;;;10.23;5.70;;;;;;;;;;5086795;28;20456;-78
2023/08/06 10:26:18;;;;;;;6.50;5.87;;;;;;;;;;5087302;28;20452;-78
2023/08/06 10:28:45;;;;;;;7.00;6.30;;;;;;;;;;5084652;28;20466;-79
2023/08/06 10:31:13;;;;;;;10.07;6.00;;;;;;;;;;5081162;28;20542;-77
2023/08/06 10:33:44;;;;;;;8.47;5.47;;;;;;;;;;5078569;28;20452;-78
2023/08/06 10:36:12;;;;;;;8.47;5.97;;;;;;;;;;5084083;28;20515;-76
2023/08/06 10:38:47;;;;;;;7.63;6.37;;;;;;;;;;5079771;28;20456;-78
2023/08/06 10:41:22;;;;;;;6.87;5.17;;;;;;;;;;5079125;28;20876;-78
2023/08/06 10:43:51;;;;;;;6.37;5.50;;;;;;;;;;5080584;28;20460;-77
2023/08/06 10:46:28;;;;;;;9.60;5.07;;;;;;;;;;5079259;28;20553;-79
2023/08/06 10:48:58;;;;;;;7.60;5.43;;;;;;;;;;5081284;28;20934;-79
2023/08/06 10:51:27;;;;;;;8.30;5.00;;;;;;;;;;5081546;28;20480;-77
2023/08/06 10:53:55;;;;;;;7.10;5.30;;;;;;;;;;5080740;28;20452;-80
2023/08/06 10:56:25;;;;;;;6.43;5.40;;;;;;;;;;5079623;28;20456;-78
2023/08/06 10:58:53;;;;;;;6.13;4.30;;;;;;;;;;5082668;28;20482;-78
2023/08/06 11:01:21;;;;;;;7.30;4.83;;;;;;;;;;5081075;28;20825;-79
2023/08/06 11:03:50;;;;;;;9.23;5.63;;;;;;;;;;5081075;28;20535;-79
2023/08/06 11:06:20;;;;;;;7.73;4.70;;;;;;;;;;5078129;28;20460;-78
2023/08/06 11:08:49;;;;;;;6.07;4.77;;;;;;;;;;5081533;28;20448;-79
2023/08/06 11:11:17;;;;;;;5.30;4.37;;;;;;;;;;5082526;28;20773;-79
2023/08/06 11:13:47;;;;;;;7.10;5.27;;;;;;;;;;5083433;28;20456;-79
2023/08/06 11:16:15;;;;;;;5.00;4.30;;;;;;;;;;5080778;28;20508;-78
2023/08/06 11:18:50;;;;;;;4.73;3.70;;;;;;;;;;5078591;28;20465;-78
2023/08/06 11:21:21;;;;;;;6.73;4.43;;;;;;;;;;5070575;28;20703;-79
2023/08/06 11:23:54;;;;;;;4.83;3.27;;;;;;;;;;5069379;28;20461;-78
2023/08/06 11:26:23;;;;;;;6.97;4.20;;;;;;;;;;5058569;28;20777;-79
2023/08/06 11:28:53;;;;;;;5.07;3.80;;;;;;;;;;5057615;28;20484;-78
2023/08/06 11:31:23;;;;;;;7.30;3.90;;;;;;;;;;5064047;28;20496;-78
2023/08/06 11:33:52;;;;;;;5.70;3.70;;;;;;;;;;5057918;28;20433;-78
2023/08/06 11:36:30;;;;;;;4.20;3.33;;;;;;;;;;5057086;28;20457;-77
2023/08/06 11:39:00;;;;;;;4.70;3.57;;;;;;;;;;5054951;28;20454;-78
2023/08/06 11:41:30;;;;;;;4.17;3.20;;;;;;;;;;5057780;28;20492;-78
2023/08/06 11:43:59;;;;;;;5.30;4.17;;;;;;;;;;5056926;28;20454;-78
2023/08/06 11:46:28;;;;;;;3.57;2.80;;;;;;;;;;5055751;28;21013;-78
2023/08/06 11:48:56;;;;;;;3.90;2.47;;;;;;;;;;5056916;28;20441;-78
2023/08/06 11:51:25;;;;;;;3.47;2.60;;;;;;;;;;5055829;28;20504;-78
2023/08/06 11:53:54;;;;;;;3.77;2.67;;;;;;;;;;5056456;28;20787;-78
2023/08/06 11:56:21;;;;;;;3.60;2.67;;;;;;;;;;5058253;28;20449;-77
2023/08/06 11:58:49;;;;;;;4.47;2.90;;;;;;;;;;5059519;28;20490;-77
2023/08/06 12:01:18;;;;;;;3.33;2.73;;;;;;;;;;5060197;28;20453;-78
2023/08/06 12:03:47;;;;;;;4.33;3.07;;;;;;;;;;5060075;28;20452;-78
2023/08/06 12:06:15;;;;;;;3.70;2.90;;;;;;;;;;5060134;28;20472;-76
2023/08/06 12:08:43;;;;;;;4.47;3.53;;;;;;;;;;5058348;28;20449;-77
2023/08/06 12:11:10;;;;;;;4.33;3.00;;;;;;;;;;5059815;28;20485;-78
2023/08/06 12:13:47;;;;;;;4.60;3.40;;;;;;;;;;5060694;28;20488;-78
2023/08/06 12:16:17;;;;;;;7.17;5.10;;;;;;;;;;5060175;28;20445;-78
2023/08/06 12:18:48;;;;;;;5.67;4.17;;;;;;;;;;5056963;28;20445;-78
2023/08/06 12:21:17;;;;;;;4.57;3.30;;;;;;;;;;5058108;28;20544;-78
2023/08/06 12:23:45;;;;;;;4.30;3.90;;;;;;;;;;5057216;28;20449;-78
2023/08/06 12:26:13;;;;;;;4.57;3.20;;;;;;;;;;5054322;28;20446;-78
2023/08/06 12:28:40;;;;;;;4.40;3.43;;;;;;;;;;5054869;28;20564;-77
2023/08/06 12:31:08;;;;;;;3.83;2.90;;;;;;;;;;5054419;28;20445;-78
2023/08/06 12:33:36;;;;;;;4.40;3.83;;;;;;;;;;5055601;28;20672;-78
2023/08/06 12:36:05;;;;;;;5.70;4.10;;;;;;;;;;5054597;28;20492;-78
2023/08/06 12:38:34;;;;;;;5.50;4.03;;;;;;;;;;5054040;28;20477;-78
2023/08/06 12:41:03;;;;;;;7.83;3.73;;;;;;;;;;5074242;28;20476;-78
2023/08/06 12:43:31;;;;;;;6.13;4.03;;;;;;;;;;5070954;28;20444;-77
2023/08/06 12:46:04;;;;;;;4.90;3.50;;;;;;;;;;5085436;28;20614;-78
2023/08/06 12:48:35;;;;;;;7.43;5.03;;;;;;;;;;5087214;28;20464;-78
2023/08/06 12:51:20;;;;;;;7.90;6.07;;;;;;;;;;5086349;28;20470;-77
2023/08/06 12:57:00;;;;;;;6.57;4.70;;;;;;;;;;5088003;28;20466;-78
2023/08/06 13:02:29;;;;;;;7.13;5.20;;;;;;;;;;5081431;28;20471;-79
2023/08/06 13:05:15;;;;;;;;;;;;;;;;;;;;;
2023/08/06 13:07:43;;;;;;;5.10;4.57;;;;;;;;;;5081329;28;20527;-78
2023/08/06 13:10:29;;;;;;;5.40;3.60;;;;;;;;;;5083421;28;20548;-78
2023/08/06 13:19:49;;;;;;;;;;;;;;;;;;;;;
2023/08/06 13:22:29;;;;;;;6.03;4.60;;;;;;;;;;5089503;28;20459;-79
2023/08/06 13:24:58;;;;;;;6.57;4.43;;;;;;;;;;5070720;28;20457;-79
2023/08/06 13:27:35;;;;;;;8.73;5.40;;;;;;;;;;5069613;28;20793;-78
2023/08/06 13:32:59;;;;;;;6.47;4.30;;;;;;;;;;5070166;28;20877;-79
2023/08/06 13:35:30;;;;;;;6.57;5.07;;;;;;;;;;5070284;28;20460;-77
2023/08/06 13:38:03;;;;;;;6.23;4.60;;;;;;;;;;5072637;28;20507;-81
2023/08/06 13:40:31;;;;;;;5.03;3.90;;;;;;;;;;5073277;28;20524;-77
2023/08/06 13:42:59;;;;;;;5.50;4.20;;;;;;;;;;5069256;28;20936;-78
2023/08/06 13:45:31;;;;;;;5.80;4.60;;;;;;;;;;5071565;28;20499;-79
2023/08/06 13:48:11;;;;;;;6.90;4.90;;;;;;;;;;5073853;28;20453;-78
2023/08/06 13:50:43;;;;;;;7.47;4.80;;;;;;;;;;5062983;28;20475;-78
2023/08/06 13:53:12;;;;;;;6.57;5.43;;;;;;;;;;5062103;28;20509;-78
2023/08/06 13:55:40;;;;;;;5.40;4.10;;;;;;;;;;5064474;28;20481;-78
2023/08/06 13:58:08;;;;;;;5.20;4.03;;;;;;;;;;5061095;28;20764;-77
2023/08/06 14:00:37;;;;;;;5.20;4.60;;;;;;;;;;5059093;28;20480;-79
2023/08/06 14:03:07;;;;;;;9.73;7.57;;;;;;;;;;5066904;28;20488;-78
2023/08/06 14:05:34;;;;;;;10.07;6.70;;;;;;;;;;5079662;28;20890;-78
2023/08/06 14:08:03;;;;;;;6.40;5.27;;;;;;;;;;5077352;28;20468;-78
2023/08/06 14:10:30;;;;;;;11.33;7.17;;;;;;;;;;5080070;28;20459;-78
2023/08/06 14:12:58;;;;;;;5.40;4.63;;;;;;;;;;5076580;28;20660;-78
2023/08/06 14:15:26;;;;;;;9.37;5.33;;;;;;;;;;5080196;28;20476;-78
2023/08/06 14:17:54;;;;;;;7.60;5.73;;;;;;;;;;5081003;28;20448;-78
2023/08/06 14:20:23;;;;;;;7.37;5.60;;;;;;;;;;5080406;28;20483;-78
2023/08/06 14:22:50;;;;;;;6.33;5.67;;;;;;;;;;5079306;28;20468;-77
2023/08/06 14:25:18;;;;;;;7.93;5.43;;;;;;;;;;5074662;28;20460;-78
2023/08/06 14:27:46;;;;;;;6.37;4.77;;;;;;;;;;5079321;28;20479;-80
2023/08/06 14:30:16;;;;;;;8.53;5.30;;;;;;;;;;5082684;28;20443;-78
2023/08/06 14:32:44;;;;;;;6.00;4.70;;;;;;;;;;5080212;28;20480;-78
2023/08/06 14:35:13;;;;;;;7.10;4.60;;;;;;;;;;5078745;28;20461;-80
2023/08/06 14:37:44;;;;;;;7.10;4.27;;;;;;;;;;5083316;28;20472;-78
2023/08/06 14:40:18;;;;;;;7.33;5.27;;;;;;;;;;5084489;28;20465;-79
2023/08/06 14:42:46;;;;;;;8.73;4.10;;;;;;;;;;5087898;28;20452;-79
2023/08/06 14:45:17;;;;;;;6.87;4.00;;;;;;;;;;5083827;28;20443;-81
2023/08/06 14:47:44;;;;;;;6.40;3.93;;;;;;;;;;5084247;28;20456;-78
2023/08/06 14:50:15;;;;;;;6.83;4.40;;;;;;;;;;5083367;28;20456;-78
2023/08/06 14:52:44;;;;;;;7.60;4.73;;;;;;;;;;5080523;28;20484;-78
2023/08/06 14:55:14;;;;;;;9.10;4.33;;;;;;;;;;5079368;28;20445;-78
2023/08/06 14:57:42;;;;;;;5.30;3.53;;;;;;;;;;5082257;28;20440;-77
2023/08/06 15:00:11;;;;;;;7.13;4.17;;;;;;;;;;5080209;28;20476;-78
2023/08/06 15:02:39;;;;;;;4.30;3.20;;;;;;;;;;5082179;28;20475;-77
2023/08/06 15:05:19;;;;;;;6.23;3.40;;;;;;;;;;5085556;28;20459;-78
2023/08/06 15:07:52;;;;;;;4.03;2.97;;;;;;;;;;5084405;28;20457;-79
2023/08/06 15:10:21;;;;;;;4.40;3.10;;;;;;;;;;5086565;28;20544;-79